INDIA METEOROLOGICAL DEPARTMENT, R.M.C. NEW DELHI
Dated:24 - 4 - 2017
METARS


Agartala   
VEAT 241309Z 00000KT 5000 BR SCT018 FEW030CB BKN100 22/21 Q1005 NOSIG RMK CB TO N =
Ahmedabad  
VAAH 241300Z 24007KT 5000 FU NSC 36/17 Q1007 BECMG 4000=
Amritsar   
VIAR 241300Z 30006KT 6000 NSC 32/13 Q1006 NOSIG=
Aurangabad 
VAAU 241200Z 32005KT 6000 NSC 37/11 Q1010 NOSIG=
Bangalore  
VOBL 241300Z 02004KT 330V070 9999 SCT015 SCT080 33/09 Q1013 NOSIG=
Bhaunagar  
VABV 241230Z 18015KT 6000 FEW025 34/21 Q1007=
Bhopal     
VABP 241230Z 25008KT 6000 NSC 36/07 Q1008=
Bhubaneswar
VEBS 241300Z 20016KT 4000 HZ NSC 30/26 Q1004 NOSIG =
Chennai    
VOMM 241300Z 14004KT 6000 FEW020 32/27 Q1006 NOSIG=
Coimbatore 
VOCB 241300Z 20012KT 6000 FEW015 FEW018CB 33/21 Q1009 NOSIG=
Colombo    
VCBI 241240Z 25006KT 9000 FEW016 30/26 Q1008 NOSIG=
Delhi      
VIDP 241300Z 29008KT 4000 HZ FEW040 36/10 Q1005 NOSIG=
Dehradun   
VIDN 241300Z 29003KT 4000 HZ SCT040 32/11 Q1005 =
Gauhati    
VEGT 241300Z 30004KT 5000 HZ FEW020 29/23 Q1003 NOSIG=
Gaya       
VEGY 241300Z 31004KT 4000 HZ NSC 37/12 Q1001=
Gaggal     
VIGG 241130Z 00000KT 8000 FEW035 32/09 Q1009=
Goa        
VOGO 241300Z 31008KT 6000 FEW020 31/24 Q1008 NOSIG=
Hyderabad  
VOHS 241300Z 01006KT 6000 NSC 35/15 Q1010 NOSIG=
Imphal     
VEIM 241200Z 11002KT 6000 FEW020 SCT100 22/17 Q1009 NOSIG=
Indore     
VAID 241200Z 29012KT 6000 NSC 35/05 Q1009 NOSIG=
Jabalpur   
VAJB 241200Z 27003KT 6000 NSC 38/07 Q1007=
Jaipur     
VIJP 241230Z 30008KT 4000 HZ FEW035CB SCT035 BKN100 35/11 Q1006 TEMPO 1500 TSRA=
Khajuraho  
VEKO 241200Z 29008KT 6000 NSC 41/21 Q1003=
Kochi      
VOCI 241300Z 31008KT 6000 FEW015 SCT080 31/24 Q1008 NOSIG=
Kolkata    
VECC 241300Z 21014KT 3200 HZ SCT020 31/27 Q1002 NOSIG=
Kozhikode  
VOCL 241300Z 29008KT 6000 FEW015 BKN090 30/24 Q1008 NOSIG=
Lucknow    
VILK 241300Z 32002KT 3000 DU SCT025 38/17 Q1001 NOSIG=
Madurai    
VOMD 241300Z 20010KT 5000 TS SCT020 FEW025CB BKN100 33/23 Q1007 TEMPO 4000 -TSRA=
Mumbai     
VABB 241300Z 27008KT 6000 NSC 30/23 Q1010 BECMG 5000 HZ=
Nagpur     
VANP 241230Z 27011KT 5000 HZ NSC 39/05 Q1006 NOSIG=
Patna      
VEPT 241300Z 00000KT 4000 HZ NSC 33/22 Q1000 NOSIG =
Raipur     
VERP 241300Z 25006KT 6000 NSC 36/04 Q1005 NOSIG=
Safdarjung 
VIDD 241300Z 27006KT 3500 HZ NSC 35/13 Q1004 NOSIG=
Ranchi     
VERC 241130Z 32005KT 6000 FEW020 37/14 Q1006 NOSIG=
Trichy     
VOTR 241300Z 16004KT 5000 HZ SCT016 FEW025CB BKN100 35/22 Q1005 TEMPO 4000 -DZ=
Trivandrum 
VOTV 241300Z 31009KT 5000 HZ FEW015 30/26 Q1008 NOSIG=
Udaipur    
VAUD 241300Z 24004KT 5000 HZ FEW030 34/11 Q1009 NOSIG=
Varanasi   
VEBN 241300Z 35003KT 4000 HZ FEW200 36/19 Q1001=
Vizag      
VOVZ 241300Z 24010KT 5000 BR FEW018 31/27 Q1005 BECMG 4000 BR =
Male       
VRMM 241300Z 24010KT 9999 FEW018 SCT019CB 31/27 Q1010 CB N,NE,W NOSIG=
Kathmandu  
VNKT 241300Z NIL=
Dhaka      
VGHS 241300Z 13010KT 3500 HZ BKN010 BKN100 23/20 Q1004 TEMPO RA=
Colombo    
VCBI 241240Z 25006KT 9000 FEW016 30/26 Q1008 NOSIG=
Karachi    
OPKC 241300Z NIL=
Lahore     
OPLA 241255Z 26004KT 7000 NSC 34/10 Q1006 A29.71=
Leh        
VILH 241130Z 29011G21KT 6000 SOCC FEW060 SCT080 14/-15 Q1016 TEMPO -RA=
Sri Nagar  
VISR 241230Z 27008KT 6000 FEW010 SCT015 FEW025CB FEW025TCU BKN080 14/06 Q1021 TEMPO TS=
Jammu      
VIJU 241230Z 28007KT 6000 FEW025 FEW030TCU 32/10 Q1006 NOSIG =
Jodhpur    
VIJO 241230Z 24009KT 6000 SCT035 FEW040TCU 37/13 Q1006 TEMPO TS &SSW 32030KT=
Bhuj-Rudra 
VABJ 241230Z 23010KT 6000 SKC 33/19 Q1007 NOSIG =
Gorakhpur  
VEGK 241230Z 29003KT 6000 SKC 34/17 Q1001 NOSIG=
Gwalior    
VIGR 241200Z 32002KT 4000 HZ SCT025 38/19 Q1003=
Pune       
VAPO 241230Z 29012KT 8000 SKC 33/06 Q1013 NOSIG=
Chandigarh 
VICG 241230Z 34010KT 8000 FEW030 34/00 Q1005 NOSIG=